sensor_id;sensor_type;location;lat;lon;timestamp;temperature;humidity
45906;DHT22;31619;49.008;12.106;2023-03-23T00:01:06;9.60;99.90
45906;DHT22;31619;49.008;12.106;2023-03-23T00:03:32;9.60;99.90
45906;DHT22;31619;49.008;12.106;2023-03-23T00:06:01;9.60;99.90
45906;DHT22;31619;49.008;12.106;2023-03-23T00:08:34;9.60;99.90
45906;DHT22;31619;49.008;12.106;2023-03-23T00:11:06;9.60;99.90
45906;DHT22;31619;49.008;12.106;2023-03-23T00:13:33;9.70;99.90
45906;DHT22;31619;49.008;12.106;2023-03-23T00:15:58;9.70;99.90
45906;DHT22;31619;49.008;12.106;2023-03-23T00:18:24;9.70;99.90
45906;DHT22;31619;49.008;12.106;2023-03-23T00:20:53;9.70;99.90
45906;DHT22;31619;49.008;12.106;2023-03-23T00:23:20;9.60;99.90
45906;DHT22;31619;49.008;12.106;2023-03-23T00:25:51;9.70;99.90
45906;DHT22;31619;49.008;12.106;2023-03-23T00:28:20;9.60;99.90
45906;DHT22;31619;49.008;12.106;2023-03-23T00:31:07;9.60;99.90
45906;DHT22;31619;49.008;12.106;2023-03-23T00:33:35;9.60;99.90
45906;DHT22;31619;49.008;12.106;2023-03-23T00:36:10;9.50;99.90
45906;DHT22;31619;49.008;12.106;2023-03-23T00:38:38;9.40;99.90
45906;DHT22;31619;49.008;12.106;2023-03-23T00:41:05;9.30;99.90
45906;DHT22;31619;49.008;12.106;2023-03-23T00:43:32;9.30;99.90
45906;DHT22;31619;49.008;12.106;2023-03-23T00:46:01;9.30;99.90
45906;DHT22;31619;49.008;12.106;2023-03-23T00:48:28;9.30;99.90
45906;DHT22;31619;49.008;12.106;2023-03-23T00:50:55;9.30;99.90
45906;DHT22;31619;49.008;12.106;2023-03-23T00:53:21;9.20;99.90
45906;DHT22;31619;49.008;12.106;2023-03-23T00:55:48;9.20;99.90
45906;DHT22;31619;49.008;12.106;2023-03-23T00:58:15;9.10;99.90
45906;DHT22;31619;49.008;12.106;2023-03-23T01:00:41;9.10;99.90
45906;DHT22;31619;49.008;12.106;2023-03-23T01:03:08;9.10;99.90
45906;DHT22;31619;49.008;12.106;2023-03-23T01:05:38;9.10;99.90
45906;DHT22;31619;49.008;12.106;2023-03-23T01:08:05;9.10;99.90
45906;DHT22;31619;49.008;12.106;2023-03-23T01:10:31;9.10;99.90
45906;DHT22;31619;49.008;12.106;2023-03-23T01:13:00;9.20;99.90
45906;DHT22;31619;49.008;12.106;2023-03-23T01:15:27;9.20;99.90
45906;DHT22;31619;49.008;12.106;2023-03-23T01:17:53;9.20;99.90
45906;DHT22;31619;49.008;12.106;2023-03-23T01:20:19;9.10;99.90
45906;DHT22;31619;49.008;12.106;2023-03-23T01:22:45;9.00;99.90
45906;DHT22;31619;49.008;12.106;2023-03-23T01:25:12;9.00;99.90
45906;DHT22;31619;49.008;12.106;2023-03-23T01:27:37;9.00;99.90
45906;DHT22;31619;49.008;12.106;2023-03-23T01:30:05;9.00;99.90
45906;DHT22;31619;49.008;12.106;2023-03-23T01:32:31;9.00;99.90
45906;DHT22;31619;49.008;12.106;2023-03-23T01:34:57;9.10;99.90
45906;DHT22;31619;49.008;12.106;2023-03-23T01:37:23;9.10;99.90
45906;DHT22;31619;49.008;12.106;2023-03-23T01:39:57;9.10;99.90
45906;DHT22;31619;49.008;12.106;2023-03-23T01:42:25;9.10;99.90
45906;DHT22;31619;49.008;12.106;2023-03-23T01:47:19;9.00;99.90
45906;DHT22;31619;49.008;12.106;2023-03-23T01:49:50;9.00;99.90
45906;DHT22;31619;49.008;12.106;2023-03-23T01:52:25;9.00;99.90
45906;DHT22;31619;49.008;12.106;2023-03-23T01:54:53;9.00;99.90
45906;DHT22;31619;49.008;12.106;2023-03-23T01:57:22;9.10;99.90
45906;DHT22;31619;49.008;12.106;2023-03-23T01:59:51;9.00;99.90
45906;DHT22;31619;49.008;12.106;2023-03-23T02:02:20;8.90;99.90
45906;DHT22;31619;49.008;12.106;2023-03-23T02:04:46;8.90;99.90
45906;DHT22;31619;49.008;12.106;2023-03-23T02:07:13;8.90;99.90
45906;DHT22;31619;49.008;12.106;2023-03-23T02:09:40;8.90;99.90
45906;DHT22;31619;49.008;12.106;2023-03-23T02:12:06;8.90;99.90
45906;DHT22;31619;49.008;12.106;2023-03-23T02:14:32;8.90;99.90
45906;DHT22;31619;49.008;12.106;2023-03-23T02:17:15;8.90;99.90
45906;DHT22;31619;49.008;12.106;2023-03-23T02:36:14;8.90;99.90
45906;DHT22;31619;49.008;12.106;2023-03-23T02:41:19;8.90;99.90
45906;DHT22;31619;49.008;12.106;2023-03-23T02:43:46;9.00;99.90
45906;DHT22;31619;49.008;12.106;2023-03-23T02:46:14;9.00;99.90
45906;DHT22;31619;49.008;12.106;2023-03-23T02:48:42;9.00;99.90
45906;DHT22;31619;49.008;12.106;2023-03-23T02:51:10;9.10;99.90
45906;DHT22;31619;49.008;12.106;2023-03-23T02:53:40;9.10;99.90
45906;DHT22;31619;49.008;12.106;2023-03-23T02:56:07;9.10;99.90
45906;DHT22;31619;49.008;12.106;2023-03-23T02:58:34;9.20;99.90
45906;DHT22;31619;49.008;12.106;2023-03-23T03:01:14;9.20;99.90
45906;DHT22;31619;49.008;12.106;2023-03-23T03:03:41;9.20;99.90
45906;DHT22;31619;49.008;12.106;2023-03-23T03:06:27;9.20;99.90
45906;DHT22;31619;49.008;12.106;2023-03-23T03:09:10;9.10;99.90
45906;DHT22;31619;49.008;12.106;2023-03-23T03:11:43;9.00;99.90
45906;DHT22;31619;49.008;12.106;2023-03-23T03:14:19;9.10;99.90
45906;DHT22;31619;49.008;12.106;2023-03-23T03:17:04;9.10;99.90
45906;DHT22;31619;49.008;12.106;2023-03-23T03:19:37;9.00;99.90
45906;DHT22;31619;49.008;12.106;2023-03-23T03:22:04;9.00;99.90
45906;DHT22;31619;49.008;12.106;2023-03-23T03:24:31;9.00;99.90
45906;DHT22;31619;49.008;12.106;2023-03-23T03:26:59;9.00;99.90
45906;DHT22;31619;49.008;12.106;2023-03-23T03:29:30;9.10;99.90
45906;DHT22;31619;49.008;12.106;2023-03-23T03:31:58;9.10;99.90
45906;DHT22;31619;49.008;12.106;2023-03-23T03:34:25;9.10;99.90
45906;DHT22;31619;49.008;12.106;2023-03-23T03:36:53;9.00;99.90
45906;DHT22;31619;49.008;12.106;2023-03-23T03:39:20;9.10;99.90
45906;DHT22;31619;49.008;12.106;2023-03-23T03:41:47;9.00;99.90
45906;DHT22;31619;49.008;12.106;2023-03-23T03:44:13;9.10;99.90
45906;DHT22;31619;49.008;12.106;2023-03-23T03:46:38;9.10;99.90
45906;DHT22;31619;49.008;12.106;2023-03-23T03:49:06;9.10;99.90
45906;DHT22;31619;49.008;12.106;2023-03-23T03:51:33;9.10;99.90
45906;DHT22;31619;49.008;12.106;2023-03-23T03:53:59;9.20;99.90
45906;DHT22;31619;49.008;12.106;2023-03-23T03:56:25;9.20;99.90
45906;DHT22;31619;49.008;12.106;2023-03-23T03:58:52;9.30;99.90
45906;DHT22;31619;49.008;12.106;2023-03-23T04:01:19;9.30;99.90
45906;DHT22;31619;49.008;12.106;2023-03-23T04:03:47;9.20;99.90
45906;DHT22;31619;49.008;12.106;2023-03-23T04:06:12;9.10;99.90
45906;DHT22;31619;49.008;12.106;2023-03-23T04:08:39;9.10;99.90
45906;DHT22;31619;49.008;12.106;2023-03-23T04:11:07;9.10;99.90
45906;DHT22;31619;49.008;12.106;2023-03-23T04:13:33;9.10;99.90
45906;DHT22;31619;49.008;12.106;2023-03-23T04:15:59;9.20;99.90
45906;DHT22;31619;49.008;12.106;2023-03-23T04:18:26;9.20;99.90
45906;DHT22;31619;49.008;12.106;2023-03-23T04:20:51;9.30;99.90
45906;DHT22;31619;49.008;12.106;2023-03-23T04:23:19;9.40;99.90
45906;DHT22;31619;49.008;12.106;2023-03-23T04:25:52;9.30;99.90
45906;DHT22;31619;49.008;12.106;2023-03-23T04:28:23;9.30;99.90
45906;DHT22;31619;49.008;12.106;2023-03-23T04:31:01;9.30;99.90
45906;DHT22;31619;49.008;12.106;2023-03-23T04:33:28;9.30;99.90
45906;DHT22;31619;49.008;12.106;2023-03-23T04:35:58;9.20;99.90
45906;DHT22;31619;49.008;12.106;2023-03-23T04:38:27;9.20;99.90
45906;DHT22;31619;49.008;12.106;2023-03-23T04:40:53;9.20;99.90
45906;DHT22;31619;49.008;12.106;2023-03-23T04:43:21;9.10;99.90
45906;DHT22;31619;49.008;12.106;2023-03-23T04:45:58;9.10;99.90
45906;DHT22;31619;49.008;12.106;2023-03-23T04:48:28;9.00;99.90
45906;DHT22;31619;49.008;12.106;2023-03-23T04:50:55;9.10;99.90
45906;DHT22;31619;49.008;12.106;2023-03-23T04:53:21;9.10;99.90
45906;DHT22;31619;49.008;12.106;2023-03-23T04:55:47;9.10;99.90
45906;DHT22;31619;49.008;12.106;2023-03-23T04:58:13;9.00;99.90
45906;DHT22;31619;49.008;12.106;2023-03-23T05:00:40;8.90;99.90
45906;DHT22;31619;49.008;12.106;2023-03-23T05:03:06;8.90;99.90
45906;DHT22;31619;49.008;12.106;2023-03-23T05:05:34;9.00;99.90
45906;DHT22;31619;49.008;12.106;2023-03-23T05:08:00;9.10;99.90
45906;DHT22;31619;49.008;12.106;2023-03-23T05:10:25;9.20;99.90
45906;DHT22;31619;49.008;12.106;2023-03-23T05:12:53;9.10;99.90
45906;DHT22;31619;49.008;12.106;2023-03-23T05:15:18;9.10;99.90
45906;DHT22;31619;49.008;12.106;2023-03-23T05:17:44;9.00;99.90
45906;DHT22;31619;49.008;12.106;2023-03-23T05:20:12;9.00;99.90
45906;DHT22;31619;49.008;12.106;2023-03-23T05:22:42;9.00;99.90
45906;DHT22;31619;49.008;12.106;2023-03-23T05:25:09;8.90;99.90
45906;DHT22;31619;49.008;12.106;2023-03-23T05:27:36;9.10;99.90
45906;DHT22;31619;49.008;12.106;2023-03-23T05:30:03;9.10;99.90
45906;DHT22;31619;49.008;12.106;2023-03-23T05:32:29;9.20;99.90
45906;DHT22;31619;49.008;12.106;2023-03-23T05:34:56;9.30;99.90
45906;DHT22;31619;49.008;12.106;2023-03-23T05:37:23;9.30;99.90
45906;DHT22;31619;49.008;12.106;2023-03-23T05:39:49;9.40;99.90
45906;DHT22;31619;49.008;12.106;2023-03-23T05:42:21;9.40;99.90
45906;DHT22;31619;49.008;12.106;2023-03-23T05:44:47;9.40;99.90
45906;DHT22;31619;49.008;12.106;2023-03-23T05:47:13;9.50;99.90
45906;DHT22;31619;49.008;12.106;2023-03-23T05:49:39;9.50;99.90
45906;DHT22;31619;49.008;12.106;2023-03-23T05:52:05;9.60;99.90
45906;DHT22;31619;49.008;12.106;2023-03-23T05:54:30;9.60;99.90
45906;DHT22;31619;49.008;12.106;2023-03-23T05:56:56;9.60;99.90
45906;DHT22;31619;49.008;12.106;2023-03-23T05:59:22;9.60;99.90
45906;DHT22;31619;49.008;12.106;2023-03-23T06:01:47;9.50;99.90
45906;DHT22;31619;49.008;12.106;2023-03-23T06:04:13;9.50;99.90
45906;DHT22;31619;49.008;12.106;2023-03-23T06:06:39;9.60;99.90
45906;DHT22;31619;49.008;12.106;2023-03-23T06:09:07;9.50;99.90
45906;DHT22;31619;49.008;12.106;2023-03-23T06:11:33;9.60;99.90
45906;DHT22;31619;49.008;12.106;2023-03-23T06:13:59;9.60;99.90
45906;DHT22;31619;49.008;12.106;2023-03-23T06:16:25;9.70;99.90
45906;DHT22;31619;49.008;12.106;2023-03-23T06:18:50;9.80;99.90
45906;DHT22;31619;49.008;12.106;2023-03-23T06:21:16;10.00;99.90
45906;DHT22;31619;49.008;12.106;2023-03-23T06:23:45;10.10;99.90
45906;DHT22;31619;49.008;12.106;2023-03-23T06:26:13;10.20;99.90
45906;DHT22;31619;49.008;12.106;2023-03-23T06:28:42;10.40;99.90
45906;DHT22;31619;49.008;12.106;2023-03-23T06:31:08;10.50;99.90
45906;DHT22;31619;49.008;12.106;2023-03-23T06:33:36;10.60;99.90
45906;DHT22;31619;49.008;12.106;2023-03-23T06:36:05;10.60;99.90
45906;DHT22;31619;49.008;12.106;2023-03-23T06:38:32;10.70;99.90
45906;DHT22;31619;49.008;12.106;2023-03-23T06:40:57;10.80;99.90
45906;DHT22;31619;49.008;12.106;2023-03-23T06:43:30;10.80;99.90
45906;DHT22;31619;49.008;12.106;2023-03-23T06:45:58;11.00;99.90
45906;DHT22;31619;49.008;12.106;2023-03-23T06:48:25;11.20;99.90
45906;DHT22;31619;49.008;12.106;2023-03-23T06:51:11;11.40;99.90
45906;DHT22;31619;49.008;12.106;2023-03-23T06:53:36;11.70;99.90
45906;DHT22;31619;49.008;12.106;2023-03-23T06:56:02;11.70;99.90
45906;DHT22;31619;49.008;12.106;2023-03-23T06:58:28;11.90;99.90
45906;DHT22;31619;49.008;12.106;2023-03-23T07:00:55;12.10;99.90
45906;DHT22;31619;49.008;12.106;2023-03-23T07:03:24;12.10;99.90
45906;DHT22;31619;49.008;12.106;2023-03-23T07:05:51;12.20;99.90
45906;DHT22;31619;49.008;12.106;2023-03-23T07:08:17;12.10;99.90
45906;DHT22;31619;49.008;12.106;2023-03-23T07:10:43;12.20;99.90
45906;DHT22;31619;49.008;12.106;2023-03-23T07:13:09;12.20;99.90
45906;DHT22;31619;49.008;12.106;2023-03-23T07:15:35;12.40;99.90
45906;DHT22;31619;49.008;12.106;2023-03-23T07:18:02;12.40;99.90
45906;DHT22;31619;49.008;12.106;2023-03-23T07:20:34;12.40;99.90
45906;DHT22;31619;49.008;12.106;2023-03-23T07:23:00;12.40;99.90
45906;DHT22;31619;49.008;12.106;2023-03-23T07:25:36;12.60;99.90
45906;DHT22;31619;49.008;12.106;2023-03-23T07:28:02;12.60;99.90
45906;DHT22;31619;49.008;12.106;2023-03-23T07:30:28;12.60;99.90
45906;DHT22;31619;49.008;12.106;2023-03-23T07:32:57;12.50;99.90
45906;DHT22;31619;49.008;12.106;2023-03-23T07:35:24;12.60;99.90
45906;DHT22;31619;49.008;12.106;2023-03-23T07:37:50;12.60;99.90
45906;DHT22;31619;49.008;12.106;2023-03-23T07:40:17;12.60;99.90
45906;DHT22;31619;49.008;12.106;2023-03-23T07:42:44;12.70;99.90
45906;DHT22;31619;49.008;12.106;2023-03-23T07:45:12;12.80;99.90
45906;DHT22;31619;49.008;12.106;2023-03-23T07:47:38;13.00;99.90
45906;DHT22;31619;49.008;12.106;2023-03-23T07:50:05;13.00;99.90
45906;DHT22;31619;49.008;12.106;2023-03-23T07:52:34;13.10;99.90
45906;DHT22;31619;49.008;12.106;2023-03-23T07:55:00;13.20;99.90
45906;DHT22;31619;49.008;12.106;2023-03-23T07:57:28;13.30;99.90
45906;DHT22;31619;49.008;12.106;2023-03-23T07:59:54;13.40;99.90
45906;DHT22;31619;49.008;12.106;2023-03-23T08:02:19;13.60;99.90
45906;DHT22;31619;49.008;12.106;2023-03-23T08:04:45;13.80;99.90
45906;DHT22;31619;49.008;12.106;2023-03-23T08:07:13;13.80;99.90
45906;DHT22;31619;49.008;12.106;2023-03-23T08:09:42;13.90;99.90
45906;DHT22;31619;49.008;12.106;2023-03-23T08:12:07;14.00;99.90
45906;DHT22;31619;49.008;12.106;2023-03-23T08:14:33;13.90;99.90
45906;DHT22;31619;49.008;12.106;2023-03-23T08:16:59;13.90;99.90
45906;DHT22;31619;49.008;12.106;2023-03-23T08:19:25;13.90;99.90
45906;DHT22;31619;49.008;12.106;2023-03-23T08:21:51;13.90;99.90
45906;DHT22;31619;49.008;12.106;2023-03-23T08:24:18;14.10;99.90
45906;DHT22;31619;49.008;12.106;2023-03-23T08:26:44;14.30;99.90
45906;DHT22;31619;49.008;12.106;2023-03-23T08:29:10;14.30;99.90
45906;DHT22;31619;49.008;12.106;2023-03-23T08:31:35;14.50;99.90
45906;DHT22;31619;49.008;12.106;2023-03-23T08:34:03;14.60;99.90
45906;DHT22;31619;49.008;12.106;2023-03-23T08:36:33;14.80;99.90
45906;DHT22;31619;49.008;12.106;2023-03-23T08:38:58;15.10;99.90
45906;DHT22;31619;49.008;12.106;2023-03-23T08:41:25;15.20;99.90
45906;DHT22;31619;49.008;12.106;2023-03-23T08:43:51;15.40;99.90
45906;DHT22;31619;49.008;12.106;2023-03-23T08:46:18;15.70;99.90
45906;DHT22;31619;49.008;12.106;2023-03-23T08:48:45;16.00;99.90
45906;DHT22;31619;49.008;12.106;2023-03-23T08:51:11;16.30;99.90
45906;DHT22;31619;49.008;12.106;2023-03-23T08:53:37;16.60;99.90
45906;DHT22;31619;49.008;12.106;2023-03-23T08:56:07;17.00;99.90
45906;DHT22;31619;49.008;12.106;2023-03-23T08:58:37;17.30;99.90
45906;DHT22;31619;49.008;12.106;2023-03-23T09:01:04;17.40;99.90
45906;DHT22;31619;49.008;12.106;2023-03-23T09:03:33;17.40;99.90
45906;DHT22;31619;49.008;12.106;2023-03-23T09:06:01;17.50;99.90
45906;DHT22;31619;49.008;12.106;2023-03-23T09:08:28;17.80;99.90
45906;DHT22;31619;49.008;12.106;2023-03-23T09:11:02;17.80;99.90
45906;DHT22;31619;49.008;12.106;2023-03-23T09:13:28;18.00;99.90
45906;DHT22;31619;49.008;12.106;2023-03-23T09:15:55;18.20;99.80
45906;DHT22;31619;49.008;12.106;2023-03-23T09:18:20;18.20;99.50
45906;DHT22;31619;49.008;12.106;2023-03-23T09:20:49;18.00;99.40
45906;DHT22;31619;49.008;12.106;2023-03-23T09:23:15;17.80;99.50
45906;DHT22;31619;49.008;12.106;2023-03-23T09:25:41;17.90;99.50
45906;DHT22;31619;49.008;12.106;2023-03-23T09:28:08;18.10;99.10
45906;DHT22;31619;49.008;12.106;2023-03-23T09:30:35;18.40;98.60
45906;DHT22;31619;49.008;12.106;2023-03-23T09:33:02;18.60;98.10
45906;DHT22;31619;49.008;12.106;2023-03-23T09:35:29;18.70;97.40
45906;DHT22;31619;49.008;12.106;2023-03-23T09:37:56;18.60;97.00
45906;DHT22;31619;49.008;12.106;2023-03-23T09:40:33;18.50;97.90
45906;DHT22;31619;49.008;12.106;2023-03-23T09:46:05;18.70;96.70
45906;DHT22;31619;49.008;12.106;2023-03-23T09:48:43;19.10;96.00
45906;DHT22;31619;49.008;12.106;2023-03-23T09:53:57;19.60;94.60
45906;DHT22;31619;49.008;12.106;2023-03-23T09:56:26;19.80;93.80
45906;DHT22;31619;49.008;12.106;2023-03-23T09:58:57;19.80;93.60
45906;DHT22;31619;49.008;12.106;2023-03-23T10:01:28;19.80;93.50
45906;DHT22;31619;49.008;12.106;2023-03-23T10:04:03;19.50;93.30
45906;DHT22;31619;49.008;12.106;2023-03-23T10:06:30;19.30;93.80
45906;DHT22;31619;49.008;12.106;2023-03-23T10:08:58;19.10;94.00
45906;DHT22;31619;49.008;12.106;2023-03-23T10:11:50;19.00;94.30
45906;DHT22;31619;49.008;12.106;2023-03-23T10:14:43;18.90;94.60
45906;DHT22;31619;49.008;12.106;2023-03-23T10:17:19;18.70;95.20
45906;DHT22;31619;49.008;12.106;2023-03-23T10:20:28;18.60;94.80
45906;DHT22;31619;49.008;12.106;2023-03-23T10:23:24;18.40;95.30
45906;DHT22;31619;49.008;12.106;2023-03-23T10:26:12;18.30;95.60
45906;DHT22;31619;49.008;12.106;2023-03-23T10:28:43;18.40;95.60
45906;DHT22;31619;49.008;12.106;2023-03-23T10:31:13;18.60;95.30
45906;DHT22;31619;49.008;12.106;2023-03-23T10:33:42;18.80;95.00
45906;DHT22;31619;49.008;12.106;2023-03-23T10:36:26;19.10;94.80
45906;DHT22;31619;49.008;12.106;2023-03-23T10:41:33;19.60;94.10
45906;DHT22;31619;49.008;12.106;2023-03-23T10:43:59;19.80;94.70
45906;DHT22;31619;49.008;12.106;2023-03-23T10:46:38;20.00;95.10
45906;DHT22;31619;49.008;12.106;2023-03-23T10:49:08;19.90;93.80
45906;DHT22;31619;49.008;12.106;2023-03-23T10:51:40;19.90;93.40
45906;DHT22;31619;49.008;12.106;2023-03-23T10:54:07;20.10;92.80
45906;DHT22;31619;49.008;12.106;2023-03-23T10:56:41;20.20;92.80
45906;DHT22;31619;49.008;12.106;2023-03-23T10:59:21;20.60;92.60
45906;DHT22;31619;49.008;12.106;2023-03-23T11:01:54;21.00;92.10
45906;DHT22;31619;49.008;12.106;2023-03-23T11:04:20;21.60;90.30
45906;DHT22;31619;49.008;12.106;2023-03-23T11:07:10;21.70;89.80
45906;DHT22;31619;49.008;12.106;2023-03-23T11:09:52;22.10;85.70
45906;DHT22;31619;49.008;12.106;2023-03-23T11:12:20;22.40;83.30
45906;DHT22;31619;49.008;12.106;2023-03-23T11:14:46;22.40;83.20
45906;DHT22;31619;49.008;12.106;2023-03-23T11:17:22;22.70;78.20
45906;DHT22;31619;49.008;12.106;2023-03-23T11:19:48;22.90;73.50
45906;DHT22;31619;49.008;12.106;2023-03-23T11:22:29;22.70;73.00
45906;DHT22;31619;49.008;12.106;2023-03-23T11:25:00;22.70;73.30
45906;DHT22;31619;49.008;12.106;2023-03-23T11:27:27;23.10;71.30
45906;DHT22;31619;49.008;12.106;2023-03-23T11:29:56;23.40;70.30
45906;DHT22;31619;49.008;12.106;2023-03-23T11:32:29;23.20;70.50
45906;DHT22;31619;49.008;12.106;2023-03-23T11:35:02;23.20;69.70
45906;DHT22;31619;49.008;12.106;2023-03-23T11:39:57;22.80;69.00
45906;DHT22;31619;49.008;12.106;2023-03-23T11:50:38;22.50;67.80
45906;DHT22;31619;49.008;12.106;2023-03-23T11:58:16;22.70;66.60
45906;DHT22;31619;49.008;12.106;2023-03-23T12:00:55;22.70;66.40
45906;DHT22;31619;49.008;12.106;2023-03-23T12:07:31;22.40;67.00
45906;DHT22;31619;49.008;12.106;2023-03-23T12:09:43;22.40;67.30
45906;DHT22;31619;49.008;12.106;2023-03-23T12:12:21;22.20;67.90
45906;DHT22;31619;49.008;12.106;2023-03-23T12:14:53;22.00;68.60
45906;DHT22;31619;49.008;12.106;2023-03-23T12:17:30;22.10;68.20
45906;DHT22;31619;49.008;12.106;2023-03-23T12:25:58;21.50;69.80
45906;DHT22;31619;49.008;12.106;2023-03-23T12:31:36;21.60;70.20
45906;DHT22;31619;49.008;12.106;2023-03-23T12:34:33;21.80;70.00
45906;DHT22;31619;49.008;12.106;2023-03-23T12:39:55;21.60;70.00
45906;DHT22;31619;49.008;12.106;2023-03-23T12:48:22;21.00;72.20
45906;DHT22;31619;49.008;12.106;2023-03-23T12:51:01;20.80;72.50
45906;DHT22;31619;49.008;12.106;2023-03-23T12:53:33;20.70;72.80
45906;DHT22;31619;49.008;12.106;2023-03-23T12:58:53;20.50;73.90
45906;DHT22;31619;49.008;12.106;2023-03-23T13:01:23;20.30;74.10
45906;DHT22;31619;49.008;12.106;2023-03-23T13:04:11;20.10;74.60
45906;DHT22;31619;49.008;12.106;2023-03-23T13:06:39;20.00;75.20
45906;DHT22;31619;49.008;12.106;2023-03-23T13:09:14;20.20;75.10
45906;DHT22;31619;49.008;12.106;2023-03-23T13:11:41;20.30;74.80
45906;DHT22;31619;49.008;12.106;2023-03-23T13:17:25;20.10;75.50
45906;DHT22;31619;49.008;12.106;2023-03-23T13:22:31;19.40;77.10
45906;DHT22;31619;49.008;12.106;2023-03-23T13:25:01;19.10;78.10
45906;DHT22;31619;49.008;12.106;2023-03-23T13:27:29;19.10;90.30
45906;DHT22;31619;49.008;12.106;2023-03-23T13:29:58;19.10;99.90
45906;DHT22;31619;49.008;12.106;2023-03-23T13:32:33;18.70;91.60
45906;DHT22;31619;49.008;12.106;2023-03-23T13:35:03;18.40;99.70
45906;DHT22;31619;49.008;12.106;2023-03-23T13:37:29;18.30;95.30
45906;DHT22;31619;49.008;12.106;2023-03-23T13:42:39;18.50;93.90
45906;DHT22;31619;49.008;12.106;2023-03-23T13:48:05;19.10;89.40
45906;DHT22;31619;49.008;12.106;2023-03-23T13:50:42;19.30;86.60
45906;DHT22;31619;49.008;12.106;2023-03-23T13:56:35;19.70;84.00
45906;DHT22;31619;49.008;12.106;2023-03-23T13:59:07;20.10;82.30
45906;DHT22;31619;49.008;12.106;2023-03-23T14:01:38;20.50;80.90
45906;DHT22;31619;49.008;12.106;2023-03-23T14:04:16;20.90;80.20
45906;DHT22;31619;49.008;12.106;2023-03-23T14:06:44;21.30;77.30
45906;DHT22;31619;49.008;12.106;2023-03-23T14:09:15;21.50;76.30
45906;DHT22;31619;49.008;12.106;2023-03-23T14:12:00;21.80;75.80
45906;DHT22;31619;49.008;12.106;2023-03-23T14:14:56;22.00;73.90
45906;DHT22;31619;49.008;12.106;2023-03-23T14:17:24;22.10;73.90
45906;DHT22;31619;49.008;12.106;2023-03-23T14:19:53;22.20;72.90
45906;DHT22;31619;49.008;12.106;2023-03-23T14:22:25;21.90;73.10
45906;DHT22;31619;49.008;12.106;2023-03-23T14:24:51;21.60;74.30
45906;DHT22;31619;49.008;12.106;2023-03-23T14:27:20;21.20;75.30
45906;DHT22;31619;49.008;12.106;2023-03-23T14:29:58;20.90;75.80
45906;DHT22;31619;49.008;12.106;2023-03-23T14:32:27;20.60;76.40
45906;DHT22;31619;49.008;12.106;2023-03-23T14:34:54;20.50;76.30
45906;DHT22;31619;49.008;12.106;2023-03-23T14:37:21;20.50;76.70
45906;DHT22;31619;49.008;12.106;2023-03-23T14:39:49;20.40;76.80
45906;DHT22;31619;49.008;12.106;2023-03-23T14:42:18;20.20;77.60
45906;DHT22;31619;49.008;12.106;2023-03-23T14:44:48;20.00;77.90
45906;DHT22;31619;49.008;12.106;2023-03-23T14:47:22;19.80;78.20
45906;DHT22;31619;49.008;12.106;2023-03-23T14:49:53;19.70;78.70
45906;DHT22;31619;49.008;12.106;2023-03-23T14:52:22;19.60;79.10
45906;DHT22;31619;49.008;12.106;2023-03-23T14:54:48;19.50;79.20
45906;DHT22;31619;49.008;12.106;2023-03-23T14:57:18;19.40;79.40
45906;DHT22;31619;49.008;12.106;2023-03-23T14:59:45;19.30;79.80
45906;DHT22;31619;49.008;12.106;2023-03-23T15:05:01;19.10;80.80
45906;DHT22;31619;49.008;12.106;2023-03-23T15:07:31;19.10;81.30
45906;DHT22;31619;49.008;12.106;2023-03-23T15:09:58;19.10;80.80
45906;DHT22;31619;49.008;12.106;2023-03-23T15:12:26;19.20;81.10
45906;DHT22;31619;49.008;12.106;2023-03-23T15:14:56;19.20;81.40
45906;DHT22;31619;49.008;12.106;2023-03-23T15:17:25;19.30;81.20
45906;DHT22;31619;49.008;12.106;2023-03-23T15:19:52;19.20;81.30
45906;DHT22;31619;49.008;12.106;2023-03-23T15:24:54;19.10;82.00
45906;DHT22;31619;49.008;12.106;2023-03-23T15:27:27;19.00;82.40
45906;DHT22;31619;49.008;12.106;2023-03-23T15:29:59;19.00;82.50
45906;DHT22;31619;49.008;12.106;2023-03-23T15:32:37;18.90;82.80
45906;DHT22;31619;49.008;12.106;2023-03-23T15:35:11;18.90;82.70
45906;DHT22;31619;49.008;12.106;2023-03-23T15:37:42;18.90;83.20
45906;DHT22;31619;49.008;12.106;2023-03-23T15:40:16;18.90;83.00
45906;DHT22;31619;49.008;12.106;2023-03-23T15:42:42;19.00;83.10
45906;DHT22;31619;49.008;12.106;2023-03-23T15:52:51;18.90;82.50
45906;DHT22;31619;49.008;12.106;2023-03-23T15:55:24;19.00;82.90
45906;DHT22;31619;49.008;12.106;2023-03-23T15:57:52;18.90;83.00
45906;DHT22;31619;49.008;12.106;2023-03-23T16:00:19;18.80;83.30
45906;DHT22;31619;49.008;12.106;2023-03-23T16:02:48;18.70;83.90
45906;DHT22;31619;49.008;12.106;2023-03-23T16:05:15;18.50;84.60
45906;DHT22;31619;49.008;12.106;2023-03-23T16:07:41;18.50;85.00
45906;DHT22;31619;49.008;12.106;2023-03-23T16:10:10;18.40;85.10
45906;DHT22;31619;49.008;12.106;2023-03-23T16:12:36;18.30;85.70
45906;DHT22;31619;49.008;12.106;2023-03-23T16:15:01;18.30;86.00
45906;DHT22;31619;49.008;12.106;2023-03-23T16:17:27;18.20;86.40
45906;DHT22;31619;49.008;12.106;2023-03-23T16:19:52;18.10;86.90
45906;DHT22;31619;49.008;12.106;2023-03-23T16:22:18;18.00;87.50
45906;DHT22;31619;49.008;12.106;2023-03-23T16:24:44;17.90;87.60
45906;DHT22;31619;49.008;12.106;2023-03-23T16:27:10;17.80;87.90
45906;DHT22;31619;49.008;12.106;2023-03-23T16:29:36;17.80;88.10
45906;DHT22;31619;49.008;12.106;2023-03-23T16:32:02;17.80;88.10
45906;DHT22;31619;49.008;12.106;2023-03-23T16:34:27;17.70;88.30
45906;DHT22;31619;49.008;12.106;2023-03-23T16:36:57;17.60;88.70
45906;DHT22;31619;49.008;12.106;2023-03-23T16:39:22;17.60;89.20
45906;DHT22;31619;49.008;12.106;2023-03-23T16:41:48;17.50;89.60
45906;DHT22;31619;49.008;12.106;2023-03-23T16:44:14;17.40;91.90
45906;DHT22;31619;49.008;12.106;2023-03-23T16:46:40;17.30;96.20
45906;DHT22;31619;49.008;12.106;2023-03-23T16:49:06;17.10;99.90
45906;DHT22;31619;49.008;12.106;2023-03-23T16:51:31;16.90;99.90
45906;DHT22;31619;49.008;12.106;2023-03-23T16:53:57;16.60;99.90
45906;DHT22;31619;49.008;12.106;2023-03-23T16:56:22;16.50;99.90
45906;DHT22;31619;49.008;12.106;2023-03-23T16:58:48;16.30;99.90
45906;DHT22;31619;49.008;12.106;2023-03-23T17:01:14;16.10;99.90
45906;DHT22;31619;49.008;12.106;2023-03-23T17:03:40;16.00;99.90
45906;DHT22;31619;49.008;12.106;2023-03-23T17:06:07;16.10;99.90
45906;DHT22;31619;49.008;12.106;2023-03-23T17:08:33;16.00;99.90
45906;DHT22;31619;49.008;12.106;2023-03-23T17:10:59;16.00;99.90
45906;DHT22;31619;49.008;12.106;2023-03-23T17:13:25;16.00;99.90